sensor_id;sensor_type;location;lat;lon;timestamp;temperature;humidity
34542;DHT22;20784;51.332;12.410;2024-02-23T00:00:38;12.70;99.90
34542;DHT22;20784;51.332;12.410;2024-02-23T00:03:03;12.70;99.90
34542;DHT22;20784;51.332;12.410;2024-02-23T00:05:29;12.70;99.90
34542;DHT22;20784;51.332;12.410;2024-02-23T00:07:54;12.70;99.90
34542;DHT22;20784;51.332;12.410;2024-02-23T00:10:20;12.60;99.90
34542;DHT22;20784;51.332;12.410;2024-02-23T00:12:48;12.60;99.90
34542;DHT22;20784;51.332;12.410;2024-02-23T00:15:14;12.60;99.90
34542;DHT22;20784;51.332;12.410;2024-02-23T00:17:39;12.60;99.90
34542;DHT22;20784;51.332;12.410;2024-02-23T00:20:08;12.70;99.90
34542;DHT22;20784;51.332;12.410;2024-02-23T00:22:35;12.70;99.90
34542;DHT22;20784;51.332;12.410;2024-02-23T00:25:01;12.70;99.90
34542;DHT22;20784;51.332;12.410;2024-02-23T00:27:26;12.70;99.90
34542;DHT22;20784;51.332;12.410;2024-02-23T00:29:52;12.70;99.90
34542;DHT22;20784;51.332;12.410;2024-02-23T00:32:17;12.70;99.90
34542;DHT22;20784;51.332;12.410;2024-02-23T00:34:43;12.80;99.90
34542;DHT22;20784;51.332;12.410;2024-02-23T00:37:08;12.80;99.90
34542;DHT22;20784;51.332;12.410;2024-02-23T00:39:34;12.80;99.90
34542;DHT22;20784;51.332;12.410;2024-02-23T00:42:00;12.80;99.90
34542;DHT22;20784;51.332;12.410;2024-02-23T00:44:25;12.70;99.90
34542;DHT22;20784;51.332;12.410;2024-02-23T00:46:51;12.70;99.90
34542;DHT22;20784;51.332;12.410;2024-02-23T00:49:16;12.70;99.90
34542;DHT22;20784;51.332;12.410;2024-02-23T00:51:42;12.60;99.90
34542;DHT22;20784;51.332;12.410;2024-02-23T00:54:10;12.60;99.90
34542;DHT22;20784;51.332;12.410;2024-02-23T00:56:36;12.60;99.90
34542;DHT22;20784;51.332;12.410;2024-02-23T00:59:01;12.50;99.90
34542;DHT22;20784;51.332;12.410;2024-02-23T01:01:27;12.50;99.90
34542;DHT22;20784;51.332;12.410;2024-02-23T01:03:54;12.50;99.90
34542;DHT22;20784;51.332;12.410;2024-02-23T01:06:19;12.30;99.90
34542;DHT22;20784;51.332;12.410;2024-02-23T01:08:47;12.40;99.90
34542;DHT22;20784;51.332;12.410;2024-02-23T01:11:13;12.40;99.90
34542;DHT22;20784;51.332;12.410;2024-02-23T01:13:38;12.40;99.90
34542;DHT22;20784;51.332;12.410;2024-02-23T01:16:04;12.40;99.90
34542;DHT22;20784;51.332;12.410;2024-02-23T01:18:29;12.30;99.90
34542;DHT22;20784;51.332;12.410;2024-02-23T01:20:56;12.30;99.90
34542;DHT22;20784;51.332;12.410;2024-02-23T01:23:23;12.30;99.90
34542;DHT22;20784;51.332;12.410;2024-02-23T01:25:48;12.30;99.90
34542;DHT22;20784;51.332;12.410;2024-02-23T01:28:14;12.30;99.90
34542;DHT22;20784;51.332;12.410;2024-02-23T01:30:39;12.20;99.90
34542;DHT22;20784;51.332;12.410;2024-02-23T01:33:05;12.30;99.90
34542;DHT22;20784;51.332;12.410;2024-02-23T01:35:30;12.20;99.90
34542;DHT22;20784;51.332;12.410;2024-02-23T01:37:58;12.20;99.90
34542;DHT22;20784;51.332;12.410;2024-02-23T01:40:23;12.20;99.90
34542;DHT22;20784;51.332;12.410;2024-02-23T01:42:59;12.20;99.90
34542;DHT22;20784;51.332;12.410;2024-02-23T01:45:25;12.20;99.90
34542;DHT22;20784;51.332;12.410;2024-02-23T01:47:50;12.20;99.90
34542;DHT22;20784;51.332;12.410;2024-02-23T01:50:16;12.10;99.90
34542;DHT22;20784;51.332;12.410;2024-02-23T01:52:41;12.10;99.90
34542;DHT22;20784;51.332;12.410;2024-02-23T01:55:08;12.10;99.90
34542;DHT22;20784;51.332;12.410;2024-02-23T01:57:34;12.00;99.90
34542;DHT22;20784;51.332;12.410;2024-02-23T01:59:59;12.00;99.90
34542;DHT22;20784;51.332;12.410;2024-02-23T02:02:25;11.90;99.90
34542;DHT22;20784;51.332;12.410;2024-02-23T02:04:51;11.90;99.90
34542;DHT22;20784;51.332;12.410;2024-02-23T02:07:16;11.60;99.90
34542;DHT22;20784;51.332;12.410;2024-02-23T02:09:43;11.80;99.90
34542;DHT22;20784;51.332;12.410;2024-02-23T02:12:09;11.70;99.90
34542;DHT22;20784;51.332;12.410;2024-02-23T02:14:34;11.60;99.90
34542;DHT22;20784;51.332;12.410;2024-02-23T02:17:00;11.50;99.90
34542;DHT22;20784;51.332;12.410;2024-02-23T02:19:25;11.50;99.90
34542;DHT22;20784;51.332;12.410;2024-02-23T02:21:51;11.40;99.90
34542;DHT22;20784;51.332;12.410;2024-02-23T02:24:16;11.40;99.90
34542;DHT22;20784;51.332;12.410;2024-02-23T02:26:42;11.40;99.90
34542;DHT22;20784;51.332;12.410;2024-02-23T02:29:10;11.30;99.90
34542;DHT22;20784;51.332;12.410;2024-02-23T02:31:36;11.30;99.90
34542;DHT22;20784;51.332;12.410;2024-02-23T02:34:03;11.30;99.90
34542;DHT22;20784;51.332;12.410;2024-02-23T02:36:29;11.20;99.90
34542;DHT22;20784;51.332;12.410;2024-02-23T02:38:54;11.20;99.90
34542;DHT22;20784;51.332;12.410;2024-02-23T02:41:22;11.00;99.90
34542;DHT22;20784;51.332;12.410;2024-02-23T02:43:49;11.00;99.90
34542;DHT22;20784;51.332;12.410;2024-02-23T02:46:15;11.00;99.90
34542;DHT22;20784;51.332;12.410;2024-02-23T02:48:40;10.90;99.90
34542;DHT22;20784;51.332;12.410;2024-02-23T02:51:06;10.80;99.90
34542;DHT22;20784;51.332;12.410;2024-02-23T02:53:31;10.80;99.90
34542;DHT22;20784;51.332;12.410;2024-02-23T02:55:57;10.70;99.90
34542;DHT22;20784;51.332;12.410;2024-02-23T02:58:22;10.70;99.90
34542;DHT22;20784;51.332;12.410;2024-02-23T03:00:48;10.60;99.90
34542;DHT22;20784;51.332;12.410;2024-02-23T03:03:13;10.60;99.90
34542;DHT22;20784;51.332;12.410;2024-02-23T03:05:39;10.60;99.90
34542;DHT22;20784;51.332;12.410;2024-02-23T03:08:05;10.60;99.90
34542;DHT22;20784;51.332;12.410;2024-02-23T03:10:30;10.50;99.90
34542;DHT22;20784;51.332;12.410;2024-02-23T03:12:56;10.50;99.90
34542;DHT22;20784;51.332;12.410;2024-02-23T03:15:21;10.50;99.90
34542;DHT22;20784;51.332;12.410;2024-02-23T03:17:47;10.50;99.90
34542;DHT22;20784;51.332;12.410;2024-02-23T03:20:12;10.40;99.90
34542;DHT22;20784;51.332;12.410;2024-02-23T03:22:43;10.40;99.90
34542;DHT22;20784;51.332;12.410;2024-02-23T03:25:09;10.30;99.90
34542;DHT22;20784;51.332;12.410;2024-02-23T03:27:36;10.30;99.90
34542;DHT22;20784;51.332;12.410;2024-02-23T03:30:03;10.30;99.90
34542;DHT22;20784;51.332;12.410;2024-02-23T03:32:28;10.20;99.90
34542;DHT22;20784;51.332;12.410;2024-02-23T03:34:56;10.30;99.90
34542;DHT22;20784;51.332;12.410;2024-02-23T03:37:22;10.30;99.90
34542;DHT22;20784;51.332;12.410;2024-02-23T03:39:47;10.10;99.90
34542;DHT22;20784;51.332;12.410;2024-02-23T03:42:14;10.10;99.90
34542;DHT22;20784;51.332;12.410;2024-02-23T03:44:40;10.00;99.90
34542;DHT22;20784;51.332;12.410;2024-02-23T03:47:08;9.80;99.90
34542;DHT22;20784;51.332;12.410;2024-02-23T03:49:33;9.70;99.90
34542;DHT22;20784;51.332;12.410;2024-02-23T03:51:59;9.60;99.90
34542;DHT22;20784;51.332;12.410;2024-02-23T03:54:24;9.50;99.90
34542;DHT22;20784;51.332;12.410;2024-02-23T03:56:50;9.40;99.90
34542;DHT22;20784;51.332;12.410;2024-02-23T03:59:15;9.30;99.90
34542;DHT22;20784;51.332;12.410;2024-02-23T04:01:41;9.20;99.90
34542;DHT22;20784;51.332;12.410;2024-02-23T04:04:06;9.10;99.90
34542;DHT22;20784;51.332;12.410;2024-02-23T04:06:33;9.10;99.90
34542;DHT22;20784;51.332;12.410;2024-02-23T04:08:58;9.00;99.90
34542;DHT22;20784;51.332;12.410;2024-02-23T04:11:26;9.00;99.90
34542;DHT22;20784;51.332;12.410;2024-02-23T04:13:51;8.90;99.90
34542;DHT22;20784;51.332;12.410;2024-02-23T04:16:17;8.90;99.90
34542;DHT22;20784;51.332;12.410;2024-02-23T04:18:45;8.80;99.90
34542;DHT22;20784;51.332;12.410;2024-02-23T04:21:11;8.80;99.90
34542;DHT22;20784;51.332;12.410;2024-02-23T04:23:36;8.70;99.90
34542;DHT22;20784;51.332;12.410;2024-02-23T04:26:02;8.70;99.90
34542;DHT22;20784;51.332;12.410;2024-02-23T04:28:27;8.70;99.90
34542;DHT22;20784;51.332;12.410;2024-02-23T04:30:56;8.60;99.90
34542;DHT22;20784;51.332;12.410;2024-02-23T04:33:21;8.60;99.90
34542;DHT22;20784;51.332;12.410;2024-02-23T04:35:47;8.60;99.90
34542;DHT22;20784;51.332;12.410;2024-02-23T04:38:12;8.50;99.90
34542;DHT22;20784;51.332;12.410;2024-02-23T04:40:38;8.50;99.90
34542;DHT22;20784;51.332;12.410;2024-02-23T04:43:04;8.50;99.90
34542;DHT22;20784;51.332;12.410;2024-02-23T04:45:29;8.50;99.90
34542;DHT22;20784;51.332;12.410;2024-02-23T04:47:55;8.50;99.90
34542;DHT22;20784;51.332;12.410;2024-02-23T04:50:20;8.40;99.90
34542;DHT22;20784;51.332;12.410;2024-02-23T04:52:46;8.40;99.90
34542;DHT22;20784;51.332;12.410;2024-02-23T04:55:11;8.40;99.90
34542;DHT22;20784;51.332;12.410;2024-02-23T04:57:37;8.40;99.90
34542;DHT22;20784;51.332;12.410;2024-02-23T05:00:04;8.40;99.90
34542;DHT22;20784;51.332;12.410;2024-02-23T05:02:30;8.30;99.90
34542;DHT22;20784;51.332;12.410;2024-02-23T05:05:03;8.30;99.90
34542;DHT22;20784;51.332;12.410;2024-02-23T05:07:31;8.30;99.90
34542;DHT22;20784;51.332;12.410;2024-02-23T05:09:57;8.30;99.90
34542;DHT22;20784;51.332;12.410;2024-02-23T05:12:22;8.30;99.90
34542;DHT22;20784;51.332;12.410;2024-02-23T05:14:48;8.30;99.90
34542;DHT22;20784;51.332;12.410;2024-02-23T05:17:13;8.30;99.90
34542;DHT22;20784;51.332;12.410;2024-02-23T05:19:39;8.20;99.90
34542;DHT22;20784;51.332;12.410;2024-02-23T05:22:04;8.20;99.90
34542;DHT22;20784;51.332;12.410;2024-02-23T05:24:30;8.20;99.90
34542;DHT22;20784;51.332;12.410;2024-02-23T05:26:58;8.20;99.90
34542;DHT22;20784;51.332;12.410;2024-02-23T05:29:27;8.20;99.90
34542;DHT22;20784;51.332;12.410;2024-02-23T05:31:52;8.20;99.90
34542;DHT22;20784;51.332;12.410;2024-02-23T05:34:18;8.20;99.90
34542;DHT22;20784;51.332;12.410;2024-02-23T05:36:44;8.20;99.90
34542;DHT22;20784;51.332;12.410;2024-02-23T05:39:11;8.20;99.90
34542;DHT22;20784;51.332;12.410;2024-02-23T05:41:38;8.30;99.90
34542;DHT22;20784;51.332;12.410;2024-02-23T05:44:04;8.30;99.90
34542;DHT22;20784;51.332;12.410;2024-02-23T05:46:32;8.20;99.90
34542;DHT22;20784;51.332;12.410;2024-02-23T05:48:58;8.20;99.90
34542;DHT22;20784;51.332;12.410;2024-02-23T05:51:27;8.20;99.90
34542;DHT22;20784;51.332;12.410;2024-02-23T05:53:54;8.20;99.90
34542;DHT22;20784;51.332;12.410;2024-02-23T05:56:20;8.10;99.90
34542;DHT22;20784;51.332;12.410;2024-02-23T05:58:49;8.10;99.90
34542;DHT22;20784;51.332;12.410;2024-02-23T06:01:14;8.20;99.90
34542;DHT22;20784;51.332;12.410;2024-02-23T06:03:40;8.00;99.90
34542;DHT22;20784;51.332;12.410;2024-02-23T06:06:07;8.20;99.90
34542;DHT22;20784;51.332;12.410;2024-02-23T06:08:36;8.00;99.90
34542;DHT22;20784;51.332;12.410;2024-02-23T06:11:02;7.90;99.90
34542;DHT22;20784;51.332;12.410;2024-02-23T06:13:29;7.90;99.90
34542;DHT22;20784;51.332;12.410;2024-02-23T06:15:55;7.90;99.90
34542;DHT22;20784;51.332;12.410;2024-02-23T06:18:21;7.90;99.90
34542;DHT22;20784;51.332;12.410;2024-02-23T06:20:46;7.90;99.90
34542;DHT22;20784;51.332;12.410;2024-02-23T06:23:12;7.90;99.90
34542;DHT22;20784;51.332;12.410;2024-02-23T06:25:38;7.90;99.90
34542;DHT22;20784;51.332;12.410;2024-02-23T06:28:05;7.90;99.90
34542;DHT22;20784;51.332;12.410;2024-02-23T06:30:31;7.90;99.90
34542;DHT22;20784;51.332;12.410;2024-02-23T06:32:57;7.90;99.90
34542;DHT22;20784;51.332;12.410;2024-02-23T06:35:23;7.90;99.90
34542;DHT22;20784;51.332;12.410;2024-02-23T06:37:48;7.90;99.90
34542;DHT22;20784;51.332;12.410;2024-02-23T06:40:14;8.00;99.90
34542;DHT22;20784;51.332;12.410;2024-02-23T06:42:39;8.00;99.90
34542;DHT22;20784;51.332;12.410;2024-02-23T06:45:05;8.00;99.90
34542;DHT22;20784;51.332;12.410;2024-02-23T06:47:31;8.10;99.90
34542;DHT22;20784;51.332;12.410;2024-02-23T06:49:56;8.00;99.90
34542;DHT22;20784;51.332;12.410;2024-02-23T06:52:22;8.00;99.90
34542;DHT22;20784;51.332;12.410;2024-02-23T06:54:48;7.90;99.90
34542;DHT22;20784;51.332;12.410;2024-02-23T06:57:14;7.90;99.90
34542;DHT22;20784;51.332;12.410;2024-02-23T06:59:39;7.90;99.90
34542;DHT22;20784;51.332;12.410;2024-02-23T07:02:05;7.90;99.90
34542;DHT22;20784;51.332;12.410;2024-02-23T07:04:31;7.90;99.90
34542;DHT22;20784;51.332;12.410;2024-02-23T07:06:57;7.90;99.90
34542;DHT22;20784;51.332;12.410;2024-02-23T07:09:23;7.80;99.90
34542;DHT22;20784;51.332;12.410;2024-02-23T07:11:48;7.80;99.90
34542;DHT22;20784;51.332;12.410;2024-02-23T07:14:14;7.90;99.90
34542;DHT22;20784;51.332;12.410;2024-02-23T07:16:42;7.90;99.90
34542;DHT22;20784;51.332;12.410;2024-02-23T07:19:07;7.90;99.90
34542;DHT22;20784;51.332;12.410;2024-02-23T07:21:33;7.90;99.90
34542;DHT22;20784;51.332;12.410;2024-02-23T07:23:59;7.90;99.90
34542;DHT22;20784;51.332;12.410;2024-02-23T07:26:25;7.90;99.90
34542;DHT22;20784;51.332;12.410;2024-02-23T07:28:52;7.90;99.90
34542;DHT22;20784;51.332;12.410;2024-02-23T07:31:17;7.80;99.90
34542;DHT22;20784;51.332;12.410;2024-02-23T07:33:43;7.80;99.90
34542;DHT22;20784;51.332;12.410;2024-02-23T07:36:14;7.80;99.90
34542;DHT22;20784;51.332;12.410;2024-02-23T07:38:40;7.90;99.90
34542;DHT22;20784;51.332;12.410;2024-02-23T07:41:05;7.90;99.90
34542;DHT22;20784;51.332;12.410;2024-02-23T07:43:31;7.90;99.90
34542;DHT22;20784;51.332;12.410;2024-02-23T07:45:56;7.90;99.90
34542;DHT22;20784;51.332;12.410;2024-02-23T07:48:21;7.90;99.90
34542;DHT22;20784;51.332;12.410;2024-02-23T07:50:47;7.90;99.90
34542;DHT22;20784;51.332;12.410;2024-02-23T07:53:12;7.90;99.90
34542;DHT22;20784;51.332;12.410;2024-02-23T07:55:38;7.90;99.90
34542;DHT22;20784;51.332;12.410;2024-02-23T07:58:04;7.90;99.90
34542;DHT22;20784;51.332;12.410;2024-02-23T08:00:29;7.90;99.90
34542;DHT22;20784;51.332;12.410;2024-02-23T08:02:55;7.90;99.90
34542;DHT22;20784;51.332;12.410;2024-02-23T08:05:22;7.80;99.90
34542;DHT22;20784;51.332;12.410;2024-02-23T08:07:49;7.90;99.90
34542;DHT22;20784;51.332;12.410;2024-02-23T08:10:14;7.90;99.90
34542;DHT22;20784;51.332;12.410;2024-02-23T08:12:40;7.90;99.90
34542;DHT22;20784;51.332;12.410;2024-02-23T08:15:06;8.00;99.90
34542;DHT22;20784;51.332;12.410;2024-02-23T08:17:31;8.00;99.90
34542;DHT22;20784;51.332;12.410;2024-02-23T08:19:57;7.90;99.90
34542;DHT22;20784;51.332;12.410;2024-02-23T08:22:23;8.00;99.90
34542;DHT22;20784;51.332;12.410;2024-02-23T08:24:49;8.10;99.90
34542;DHT22;20784;51.332;12.410;2024-02-23T08:27:14;8.10;99.90
34542;DHT22;20784;51.332;12.410;2024-02-23T08:29:40;8.10;99.90
34542;DHT22;20784;51.332;12.410;2024-02-23T08:32:06;8.20;99.90
34542;DHT22;20784;51.332;12.410;2024-02-23T08:34:32;8.20;99.90
34542;DHT22;20784;51.332;12.410;2024-02-23T08:36:58;8.40;99.90
34542;DHT22;20784;51.332;12.410;2024-02-23T08:39:23;8.40;99.90
34542;DHT22;20784;51.332;12.410;2024-02-23T08:41:49;8.60;99.90
34542;DHT22;20784;51.332;12.410;2024-02-23T08:44:16;8.70;99.90
34542;DHT22;20784;51.332;12.410;2024-02-23T08:46:42;8.80;99.90
34542;DHT22;20784;51.332;12.410;2024-02-23T08:49:07;8.70;99.90
34542;DHT22;20784;51.332;12.410;2024-02-23T08:51:33;8.80;99.90
34542;DHT22;20784;51.332;12.410;2024-02-23T08:53:59;8.90;99.90
34542;DHT22;20784;51.332;12.410;2024-02-23T08:56:29;9.00;99.90
34542;DHT22;20784;51.332;12.410;2024-02-23T08:58:58;9.10;99.90
34542;DHT22;20784;51.332;12.410;2024-02-23T09:01:23;9.10;99.90
34542;DHT22;20784;51.332;12.410;2024-02-23T09:03:49;9.00;99.90
34542;DHT22;20784;51.332;12.410;2024-02-23T09:06:14;9.00;99.90
34542;DHT22;20784;51.332;12.410;2024-02-23T09:08:40;9.10;99.90
34542;DHT22;20784;51.332;12.410;2024-02-23T09:11:06;9.30;99.90
34542;DHT22;20784;51.332;12.410;2024-02-23T09:13:32;9.40;99.90
34542;DHT22;20784;51.332;12.410;2024-02-23T09:15:57;9.50;99.90
34542;DHT22;20784;51.332;12.410;2024-02-23T09:18:22;9.70;99.90
34542;DHT22;20784;51.332;12.410;2024-02-23T09:20:48;9.70;99.90
34542;DHT22;20784;51.332;12.410;2024-02-23T09:23:14;9.90;99.90
34542;DHT22;20784;51.332;12.410;2024-02-23T09:25:39;9.90;99.90
34542;DHT22;20784;51.332;12.410;2024-02-23T09:28:05;10.00;99.90
34542;DHT22;20784;51.332;12.410;2024-02-23T09:30:30;10.10;99.90
34542;DHT22;20784;51.332;12.410;2024-02-23T09:32:56;10.10;99.90
34542;DHT22;20784;51.332;12.410;2024-02-23T09:35:21;9.90;99.90
34542;DHT22;20784;51.332;12.410;2024-02-23T09:37:47;9.90;99.90
34542;DHT22;20784;51.332;12.410;2024-02-23T09:40:13;9.70;99.90
34542;DHT22;20784;51.332;12.410;2024-02-23T09:42:41;9.70;99.90
34542;DHT22;20784;51.332;12.410;2024-02-23T09:45:08;10.00;99.90
34542;DHT22;20784;51.332;12.410;2024-02-23T09:47:35;10.20;99.90
34542;DHT22;20784;51.332;12.410;2024-02-23T09:50:03;10.60;99.90
34542;DHT22;20784;51.332;12.410;2024-02-23T09:52:29;10.60;99.90
34542;DHT22;20784;51.332;12.410;2024-02-23T09:54:55;10.40;99.90
34542;DHT22;20784;51.332;12.410;2024-02-23T09:57:21;10.20;99.90
34542;DHT22;20784;51.332;12.410;2024-02-23T09:59:48;10.50;99.90
34542;DHT22;20784;51.332;12.410;2024-02-23T10:02:15;10.70;99.90
34542;DHT22;20784;51.332;12.410;2024-02-23T10:04:42;10.90;99.90
34542;DHT22;20784;51.332;12.410;2024-02-23T10:07:14;10.70;99.90
34542;DHT22;20784;51.332;12.410;2024-02-23T10:09:40;10.60;99.90
34542;DHT22;20784;51.332;12.410;2024-02-23T10:12:06;10.60;99.90
34542;DHT22;20784;51.332;12.410;2024-02-23T10:14:32;10.60;99.90
34542;DHT22;20784;51.332;12.410;2024-02-23T10:16:57;10.60;99.90
34542;DHT22;20784;51.332;12.410;2024-02-23T10:19:24;10.70;99.90
34542;DHT22;20784;51.332;12.410;2024-02-23T10:21:55;10.60;99.90
34542;DHT22;20784;51.332;12.410;2024-02-23T10:24:22;10.50;99.90
34542;DHT22;20784;51.332;12.410;2024-02-23T10:26:48;10.70;99.90
34542;DHT22;20784;51.332;12.410;2024-02-23T10:29:13;10.80;99.90
34542;DHT22;20784;51.332;12.410;2024-02-23T10:31:39;11.00;99.90
34542;DHT22;20784;51.332;12.410;2024-02-23T10:34:08;11.00;99.90
34542;DHT22;20784;51.332;12.410;2024-02-23T10:36:43;10.80;99.90
34542;DHT22;20784;51.332;12.410;2024-02-23T10:39:10;10.70;99.90
34542;DHT22;20784;51.332;12.410;2024-02-23T10:41:36;10.60;99.90
34542;DHT22;20784;51.332;12.410;2024-02-23T10:44:05;10.80;99.90
34542;DHT22;20784;51.332;12.410;2024-02-23T10:46:32;11.00;99.90
34542;DHT22;20784;51.332;12.410;2024-02-23T10:48:58;10.90;99.90
34542;DHT22;20784;51.332;12.410;2024-02-23T10:51:25;10.90;99.90
34542;DHT22;20784;51.332;12.410;2024-02-23T10:53:52;10.80;99.90
34542;DHT22;20784;51.332;12.410;2024-02-23T10:56:18;10.70;99.90
34542;DHT22;20784;51.332;12.410;2024-02-23T10:58:47;10.60;99.90
34542;DHT22;20784;51.332;12.410;2024-02-23T11:01:13;10.60;99.90
34542;DHT22;20784;51.332;12.410;2024-02-23T11:03:42;10.50;99.90
34542;DHT22;20784;51.332;12.410;2024-02-23T11:06:09;10.40;99.90
34542;DHT22;20784;51.332;12.410;2024-02-23T11:08:35;10.30;99.90
34542;DHT22;20784;51.332;12.410;2024-02-23T11:11:11;10.20;99.90
34542;DHT22;20784;51.332;12.410;2024-02-23T11:13:37;10.10;99.90
34542;DHT22;20784;51.332;12.410;2024-02-23T11:16:07;10.00;99.90
34542;DHT22;20784;51.332;12.410;2024-02-23T11:18:36;10.00;99.90
34542;DHT22;20784;51.332;12.410;2024-02-23T11:21:03;10.10;99.90
34542;DHT22;20784;51.332;12.410;2024-02-23T11:23:41;10.00;99.90
34542;DHT22;20784;51.332;12.410;2024-02-23T11:26:10;9.90;99.90
34542;DHT22;20784;51.332;12.410;2024-02-23T11:28:49;10.00;99.90
34542;DHT22;20784;51.332;12.410;2024-02-23T11:31:24;9.90;99.90
34542;DHT22;20784;51.332;12.410;2024-02-23T11:33:54;9.90;99.90
34542;DHT22;20784;51.332;12.410;2024-02-23T11:36:24;9.80;99.90
34542;DHT22;20784;51.332;12.410;2024-02-23T11:39:00;9.80;99.90
34542;DHT22;20784;51.332;12.410;2024-02-23T11:41:26;9.80;99.90
34542;DHT22;20784;51.332;12.410;2024-02-23T11:43:53;10.00;99.90
34542;DHT22;20784;51.332;12.410;2024-02-23T11:46:20;9.90;99.90
34542;DHT22;20784;51.332;12.410;2024-02-23T11:48:46;10.00;99.90
34542;DHT22;20784;51.332;12.410;2024-02-23T11:51:15;9.90;99.90
34542;DHT22;20784;51.332;12.410;2024-02-23T11:53:41;9.90;99.90
34542;DHT22;20784;51.332;12.410;2024-02-23T11:56:07;9.70;99.90
34542;DHT22;20784;51.332;12.410;2024-02-23T11:58:33;9.70;99.90
34542;DHT22;20784;51.332;12.410;2024-02-23T12:01:02;9.80;99.90
34542;DHT22;20784;51.332;12.410;2024-02-23T12:03:31;9.90;99.90
34542;DHT22;20784;51.332;12.410;2024-02-23T12:05:57;10.00;99.90
34542;DHT22;20784;51.332;12.410;2024-02-23T12:08:25;9.80;99.90
34542;DHT22;20784;51.332;12.410;2024-02-23T12:10:52;9.90;99.90
34542;DHT22;20784;51.332;12.410;2024-02-23T12:13:18;9.70;99.90
34542;DHT22;20784;51.332;12.410;2024-02-23T12:15:44;9.80;99.90
34542;DHT22;20784;51.332;12.410;2024-02-23T12:18:11;9.80;99.90
34542;DHT22;20784;51.332;12.410;2024-02-23T12:20:36;9.80;99.90
34542;DHT22;20784;51.332;12.410;2024-02-23T12:23:02;9.90;99.90
34542;DHT22;20784;51.332;12.410;2024-02-23T12:25:28;9.80;99.90
34542;DHT22;20784;51.332;12.410;2024-02-23T12:27:56;9.80;99.90
34542;DHT22;20784;51.332;12.410;2024-02-23T12:30:22;9.80;99.90
34542;DHT22;20784;51.332;12.410;2024-02-23T12:32:48;9.90;99.90
34542;DHT22;20784;51.332;12.410;2024-02-23T12:35:14;9.90;99.90
34542;DHT22;20784;51.332;12.410;2024-02-23T12:37:43;9.90;99.90
34542;DHT22;20784;51.332;12.410;2024-02-23T12:40:10;9.80;99.90
34542;DHT22;20784;51.332;12.410;2024-02-23T12:42:36;9.90;99.90
34542;DHT22;20784;51.332;12.410;2024-02-23T12:45:02;9.90;99.90
34542;DHT22;20784;51.332;12.410;2024-02-23T12:47:30;9.90;99.90
34542;DHT22;20784;51.332;12.410;2024-02-23T12:49:55;9.70;99.90
34542;DHT22;20784;51.332;12.410;2024-02-23T12:52:21;9.70;99.90
34542;DHT22;20784;51.332;12.410;2024-02-23T12:54:46;9.60;99.90
34542;DHT22;20784;51.332;12.410;2024-02-23T12:57:12;9.60;99.90
34542;DHT22;20784;51.332;12.410;2024-02-23T12:59:37;9.50;99.90
34542;DHT22;20784;51.332;12.410;2024-02-23T13:02:03;9.40;99.90
34542;DHT22;20784;51.332;12.410;2024-02-23T13:04:31;9.40;99.90
34542;DHT22;20784;51.332;12.410;2024-02-23T13:06:56;9.40;99.90
34542;DHT22;20784;51.332;12.410;2024-02-23T13:09:23;9.50;99.90
34542;DHT22;20784;51.332;12.410;2024-02-23T13:11:49;9.50;99.90
34542;DHT22;20784;51.332;12.410;2024-02-23T13:14:17;9.50;99.90
34542;DHT22;20784;51.332;12.410;2024-02-23T13:16:42;9.60;99.90
34542;DHT22;20784;51.332;12.410;2024-02-23T13:19:08;9.60;99.90
34542;DHT22;20784;51.332;12.410;2024-02-23T13:21:34;9.60;99.90
34542;DHT22;20784;51.332;12.410;2024-02-23T13:24:02;9.50;99.90
34542;DHT22;20784;51.332;12.410;2024-02-23T13:26:28;9.50;99.90
34542;DHT22;20784;51.332;12.410;2024-02-23T13:28:56;9.50;99.90
34542;DHT22;20784;51.332;12.410;2024-02-23T13:31:24;9.50;99.90
34542;DHT22;20784;51.332;12.410;2024-02-23T13:33:50;9.60;99.90
34542;DHT22;20784;51.332;12.410;2024-02-23T13:36:15;9.70;99.90
34542;DHT22;20784;51.332;12.410;2024-02-23T13:38:44;9.50;99.90
34542;DHT22;20784;51.332;12.410;2024-02-23T13:41:09;9.50;99.90
34542;DHT22;20784;51.332;12.410;2024-02-23T13:43:35;9.50;99.90
34542;DHT22;20784;51.332;12.410;2024-02-23T13:46:00;9.50;99.90
34542;DHT22;20784;51.332;12.410;2024-02-23T13:48:27;9.60;99.90
34542;DHT22;20784;51.332;12.410;2024-02-23T13:50:53;9.60;99.90
34542;DHT22;20784;51.332;12.410;2024-02-23T13:53:18;9.50;99.90
34542;DHT22;20784;51.332;12.410;2024-02-23T13:55:45;9.60;99.90
34542;DHT22;20784;51.332;12.410;2024-02-23T13:58:11;9.50;99.90
34542;DHT22;20784;51.332;12.410;2024-02-23T14:00:37;9.50;99.90
34542;DHT22;20784;51.332;12.410;2024-02-23T14:03:03;9.50;99.90
34542;DHT22;20784;51.332;12.410;2024-02-23T14:05:29;9.50;99.90
34542;DHT22;20784;51.332;12.410;2024-02-23T14:07:54;9.50;99.90
34542;DHT22;20784;51.332;12.410;2024-02-23T14:10:20;9.60;99.90
34542;DHT22;20784;51.332;12.410;2024-02-23T14:12:46;9.70;99.90
34542;DHT22;20784;51.332;12.410;2024-02-23T14:15:12;9.70;99.90
34542;DHT22;20784;51.332;12.410;2024-02-23T14:17:38;9.70;99.90
34542;DHT22;20784;51.332;12.410;2024-02-23T14:20:04;9.70;99.90
34542;DHT22;20784;51.332;12.410;2024-02-23T14:22:30;9.60;99.90
34542;DHT22;20784;51.332;12.410;2024-02-23T14:24:55;9.70;99.90
34542;DHT22;20784;51.332;12.410;2024-02-23T14:27:21;9.60;99.90
34542;DHT22;20784;51.332;12.410;2024-02-23T14:29:46;9.60;99.90
34542;DHT22;20784;51.332;12.410;2024-02-23T14:32:16;9.50;99.90
34542;DHT22;20784;51.332;12.410;2024-02-23T14:34:42;9.40;99.90
34542;DHT22;20784;51.332;12.410;2024-02-23T14:37:08;9.30;99.90
34542;DHT22;20784;51.332;12.410;2024-02-23T14:39:33;9.30;99.90
34542;DHT22;20784;51.332;12.410;2024-02-23T14:42:02;9.30;99.90
34542;DHT22;20784;51.332;12.410;2024-02-23T14:44:31;9.20;99.90
34542;DHT22;20784;51.332;12.410;2024-02-23T14:46:57;9.20;99.90
34542;DHT22;20784;51.332;12.410;2024-02-23T14:49:22;9.10;99.90
34542;DHT22;20784;51.332;12.410;2024-02-23T14:51:48;9.10;99.90
34542;DHT22;20784;51.332;12.410;2024-02-23T14:54:14;9.10;99.90
34542;DHT22;20784;51.332;12.410;2024-02-23T14:56:40;9.00;99.90
34542;DHT22;20784;51.332;12.410;2024-02-23T14:59:07;9.10;99.90
34542;DHT22;20784;51.332;12.410;2024-02-23T15:01:37;9.00;99.90
34542;DHT22;20784;51.332;12.410;2024-02-23T15:04:04;9.00;99.90
34542;DHT22;20784;51.332;12.410;2024-02-23T15:06:29;9.00;99.90
34542;DHT22;20784;51.332;12.410;2024-02-23T15:08:55;9.10;99.90
34542;DHT22;20784;51.332;12.410;2024-02-23T15:11:20;9.00;99.90
34542;DHT22;20784;51.332;12.410;2024-02-23T15:13:47;8.90;99.90
34542;DHT22;20784;51.332;12.410;2024-02-23T15:16:12;8.90;99.90
34542;DHT22;20784;51.332;12.410;2024-02-23T15:18:37;8.80;99.90